createdAt,value
2023-01-29T00:01:33.962Z,99196.53
2023-01-29T00:04:00.524Z,99193.28
2023-01-29T00:06:27.169Z,99190.72
2023-01-29T00:08:53.786Z,99189.75
2023-01-29T00:11:24.115Z,99185.50
2023-01-29T00:13:51.139Z,99184.66
2023-01-29T00:16:17.876Z,99186.28
2023-01-29T00:18:45.020Z,99179.38
2023-01-29T00:21:16.650Z,99176.81
2023-01-29T00:23:43.424Z,99185.25
2023-01-29T00:26:10.946Z,99182.75
2023-01-29T00:28:37.700Z,99181.78
2023-01-29T00:31:13.246Z,99180.13
2023-01-29T00:33:39.913Z,99178.28
2023-01-29T00:36:08.639Z,99175.75
2023-01-29T00:38:37.741Z,99184.06
2023-01-29T00:41:29.175Z,99179.72
2023-01-29T00:44:14.637Z,99187.47
2023-01-29T00:46:41.361Z,99179.78
2023-01-29T00:49:08.752Z,99188.13
2023-01-29T00:51:36.336Z,99191.34
2023-01-29T00:54:06.785Z,99198.34
2023-01-29T00:56:35.751Z,99186.97
2023-01-29T00:59:03.337Z,99185.28
2023-01-29T01:01:48.539Z,99188.59
2023-01-29T01:04:15.259Z,99187.63
2023-01-29T01:06:42.748Z,99200.31
2023-01-29T01:09:29.696Z,99195.25
2023-01-29T01:11:57.486Z,99192.66
2023-01-29T01:14:27.036Z,99197.84
2023-01-29T01:16:53.604Z,99187.66
2023-01-29T01:19:20.333Z,99193.50
2023-01-29T01:21:49.766Z,99195.94
2023-01-29T01:24:16.361Z,99195.34
2023-01-29T01:26:42.908Z,99199.69
2023-01-29T01:29:09.480Z,99191.88
2023-01-29T01:31:36.047Z,99199.47
2023-01-29T01:34:02.594Z,99195.13
2023-01-29T01:36:29.114Z,99192.63
2023-01-29T01:38:55.694Z,99192.47
2023-01-29T01:41:24.099Z,99201.72
2023-01-29T01:43:56.053Z,99211.88
2023-01-29T01:46:23.696Z,99201.72
2023-01-29T01:49:02.483Z,99203.31
2023-01-29T01:51:32.519Z,99209.97
2023-01-29T01:54:18.774Z,99207.38
2023-01-29T01:56:50.073Z,99217.38
2023-01-29T01:59:19.040Z,99207.28
2023-01-29T02:01:51.240Z,99210.63
2023-01-29T02:04:41.163Z,99217.44
2023-01-29T02:07:30.248Z,99221.38
2023-01-29T02:10:04.821Z,99212.09
2023-01-29T02:12:33.041Z,99213.91
2023-01-29T02:15:00.393Z,99208.72
2023-01-29T02:17:27.020Z,99212.78
2023-01-29T02:20:19.763Z,99219.81
2023-01-29T02:22:56.137Z,99219.69
2023-01-29T02:25:58.163Z,99216.16
2023-01-29T02:28:49.085Z,99211.88
2023-01-29T02:31:39.592Z,99202.25
2023-01-29T02:34:18.273Z,99215.94
2023-01-29T02:36:51.013Z,99212.66
2023-01-29T02:39:23.548Z,99215.91
2023-01-29T02:42:11.678Z,99218.28
2023-01-29T02:44:52.345Z,99216.75
2023-01-29T02:47:42.694Z,99217.75
2023-01-29T02:50:18.795Z,99218.53
2023-01-29T02:52:56.841Z,99238.13
2023-01-29T02:55:31.487Z,99239.72
2023-01-29T02:58:05.485Z,99226.97
2023-01-29T03:00:36.875Z,99231.09
2023-01-29T03:03:18.895Z,99232.56
2023-01-29T03:05:59.902Z,99228.19
2023-01-29T03:08:43.241Z,99225.53
2023-01-29T03:11:14.541Z,99221.19
2023-01-29T03:13:46.523Z,99225.56
2023-01-29T03:16:22.256Z,99224.69
2023-01-29T03:19:04.570Z,99216.91
2023-01-29T03:21:53.187Z,99213.28
2023-01-29T03:24:45.378Z,99214.19
2023-01-29T03:27:33.437Z,99209.97
2023-01-29T03:30:20.527Z,99211.81
2023-01-29T03:32:51.990Z,99212.41
2023-01-29T03:35:33.499Z,99211.72
2023-01-29T03:38:00.994Z,99211.66
2023-01-29T03:40:34.396Z,99209.31
2023-01-29T03:43:10.816Z,99210.34
2023-01-29T03:46:01.711Z,99218.72
2023-01-29T03:48:45.608Z,99215.22
2023-01-29T03:51:22.913Z,99210.94
2023-01-29T03:53:49.476Z,99216.75
2023-01-29T03:56:21.426Z,99209.03
2023-01-29T03:59:12.987Z,99216.72
2023-01-29T04:01:48.613Z,99208.97
2023-01-29T04:04:22.724Z,99222.72
2023-01-29T04:06:53.136Z,99218.56
2023-01-29T04:09:27.820Z,99227.25
2023-01-29T04:12:02.139Z,99227.13
2023-01-29T04:14:29.790Z,99234.81
2023-01-29T04:17:00.494Z,99235.72
2023-01-29T04:19:28.195Z,99237.41
2023-01-29T04:22:06.031Z,99241.34
2023-01-29T04:24:33.470Z,99233.75
2023-01-29T04:27:21.875Z,99250.16
2023-01-29T04:30:11.842Z,99247.44
2023-01-29T04:32:59.702Z,99248.13
2023-01-29T04:35:44.267Z,99251.22
2023-01-29T04:38:42.952Z,99238.66
2023-01-29T04:41:30.522Z,99250.66
2023-01-29T04:44:14.943Z,99247.34
2023-01-29T04:47:10.825Z,99252.41
2023-01-29T04:49:55.320Z,99237.09
2023-01-29T04:52:34.040Z,99244.81
2023-01-29T04:55:29.638Z,99238.97
2023-01-29T04:58:17.637Z,99240.56
2023-01-29T05:00:49.220Z,99230.38
2023-01-29T05:03:16.665Z,99230.53
2023-01-29T05:05:48.333Z,99222.16
2023-01-29T05:08:19.561Z,99230.72
2023-01-29T05:10:48.474Z,99231.44
2023-01-29T05:13:16.046Z,99218.72
2023-01-29T05:15:52.102Z,99234.00
2023-01-29T05:18:18.989Z,99230.31
2023-01-29T05:20:47.802Z,99243.16
2023-01-29T05:23:22.797Z,99245.75
2023-01-29T05:25:50.316Z,99237.81
2023-01-29T05:28:17.407Z,99237.91
2023-01-29T05:30:56.111Z,99230.31
2023-01-29T05:33:33.701Z,99240.22
2023-01-29T05:36:00.240Z,99232.59
2023-01-29T05:38:26.814Z,99225.44
2023-01-29T05:40:54.091Z,99225.69
2023-01-29T05:43:25.240Z,99230.00
2023-01-29T05:46:01.147Z,99226.31
2023-01-29T05:48:29.113Z,99228.88
2023-01-29T05:51:00.773Z,99228.06
2023-01-29T05:53:29.221Z,99222.78
2023-01-29T05:55:57.336Z,99220.00
2023-01-29T05:58:23.895Z,99210.75
2023-01-29T06:00:50.534Z,99216.00
2023-01-29T06:03:17.134Z,99216.09
2023-01-29T06:05:46.655Z,99225.03
2023-01-29T06:08:13.393Z,99225.66
2023-01-29T06:10:40.116Z,99234.25
2023-01-29T06:13:07.161Z,99237.72
2023-01-29T06:15:33.669Z,99242.75
2023-01-29T06:18:06.379Z,99242.88
2023-01-29T06:20:32.979Z,99239.69
2023-01-29T06:22:59.735Z,99240.59
2023-01-29T06:25:26.376Z,99249.75
2023-01-29T06:27:53.005Z,99254.00
2023-01-29T06:30:19.968Z,99255.50
2023-01-29T06:32:46.536Z,99264.09
2023-01-29T06:35:13.105Z,99254.50
2023-01-29T06:37:39.645Z,99258.03
2023-01-29T06:40:06.987Z,99261.63
2023-01-29T06:42:35.696Z,99266.00
2023-01-29T06:45:02.299Z,99266.06
2023-01-29T06:47:28.959Z,99263.78
2023-01-29T06:49:59.667Z,99266.97
2023-01-29T06:52:28.948Z,99266.97
2023-01-29T06:54:58.301Z,99262.06
2023-01-29T06:57:24.856Z,99267.09
2023-01-29T06:59:51.423Z,99268.63
2023-01-29T07:02:20.572Z,99276.25
2023-01-29T07:04:47.271Z,99268.03
2023-01-29T07:07:13.939Z,99263.88
2023-01-29T07:09:41.899Z,99270.28
2023-01-29T07:12:09.851Z,99269.69
2023-01-29T07:14:36.819Z,99273.13
2023-01-29T07:17:03.951Z,99273.19
2023-01-29T07:19:30.498Z,99273.19
2023-01-29T07:21:57.031Z,99275.19
2023-01-29T07:24:24.530Z,99274.22
2023-01-29T07:26:51.070Z,99275.94
2023-01-29T07:29:17.650Z,99285.06
2023-01-29T07:31:44.278Z,99278.31
2023-01-29T07:34:10.882Z,99279.13
2023-01-29T07:36:37.526Z,99283.25
2023-01-29T07:39:06.729Z,99282.41
2023-01-29T07:41:33.267Z,99285.56
2023-01-29T07:43:59.823Z,99285.75
2023-01-29T07:46:26.365Z,99288.22
2023-01-29T07:48:52.895Z,99285.09
2023-01-29T07:51:21.458Z,99280.19
2023-01-29T07:53:48.138Z,99290.16
2023-01-29T07:56:14.883Z,99295.34
2023-01-29T07:58:41.532Z,99294.53
2023-01-29T08:01:08.258Z,99296.31
2023-01-29T08:03:35.853Z,99288.78
2023-01-29T08:06:04.272Z,99289.84
2023-01-29T08:08:31.375Z,99289.00
2023-01-29T08:11:01.608Z,99289.75
2023-01-29T08:13:28.205Z,99291.41
2023-01-29T08:15:54.702Z,99297.44
2023-01-29T08:18:27.038Z,99301.81
2023-01-29T08:20:54.084Z,99301.59
2023-01-29T08:23:20.585Z,99297.34
2023-01-29T08:25:47.175Z,99300.59
2023-01-29T08:28:13.938Z,99302.16
2023-01-29T08:30:42.614Z,99298.53
2023-01-29T08:33:09.103Z,99302.19
2023-01-29T08:35:36.065Z,99305.59
2023-01-29T08:38:09.250Z,99305.47
2023-01-29T08:40:38.873Z,99321.69
2023-01-29T08:43:09.208Z,99321.81
2023-01-29T08:45:40.013Z,99325.28
2023-01-29T08:48:07.087Z,99334.66
2023-01-29T08:50:35.054Z,99330.59
2023-01-29T08:53:03.567Z,99329.88
2023-01-29T08:55:30.149Z,99336.50
2023-01-29T08:57:59.652Z,99331.50
2023-01-29T09:00:28.624Z,99340.84
2023-01-29T09:02:55.150Z,99344.94
2023-01-29T09:05:21.783Z,99353.41
2023-01-29T09:07:48.344Z,99355.84
2023-01-29T09:10:15.728Z,99353.28
2023-01-29T09:12:42.329Z,99361.13
2023-01-29T09:15:09.459Z,99365.34
2023-01-29T09:17:35.981Z,99364.50
2023-01-29T09:20:10.967Z,99352.72
2023-01-29T09:22:37.640Z,99361.34
2023-01-29T09:25:04.583Z,99357.22
2023-01-29T09:27:31.253Z,99355.47
2023-01-29T09:29:57.858Z,99363.25
2023-01-29T09:32:52.143Z,99374.41
2023-01-29T09:35:15.837Z,99359.84
2023-01-29T09:37:42.548Z,99368.59
2023-01-29T09:40:31.368Z,99360.63
2023-01-29T09:43:14.029Z,99349.47
2023-01-29T09:45:51.383Z,99344.34
2023-01-29T09:48:20.260Z,99348.91
2023-01-29T09:50:51.657Z,99345.44
2023-01-29T09:53:32.699Z,99356.44
2023-01-29T09:56:04.312Z,99346.28
2023-01-29T09:58:36.511Z,99348.91
2023-01-29T10:01:22.601Z,99344.91
2023-01-29T10:04:11.759Z,99335.56
2023-01-29T10:07:00.462Z,99330.41
2023-01-29T10:09:48.207Z,99327.25
2023-01-29T10:12:38.281Z,99322.34
2023-01-29T10:15:17.661Z,99310.44
2023-01-29T10:18:09.208Z,99295.19
2023-01-29T10:20:53.932Z,99290.22
2023-01-29T10:23:35.052Z,99291.28
2023-01-29T10:26:02.798Z,99289.69
2023-01-29T10:28:36.450Z,99280.19
2023-01-29T10:31:17.906Z,99278.63
2023-01-29T10:34:03.051Z,99282.03
2023-01-29T10:36:43.341Z,99280.50
2023-01-29T10:39:21.104Z,99290.69
2023-01-29T10:42:00.595Z,99290.72
2023-01-29T10:44:35.134Z,99300.31
2023-01-29T10:47:28.060Z,99295.38
2023-01-29T10:50:28.586Z,99306.41
2023-01-29T10:53:33.774Z,99298.00
2023-01-29T10:56:25.795Z,99299.38
2023-01-29T10:58:57.997Z,99287.81
2023-01-29T11:01:24.725Z,99288.59
2023-01-29T11:04:11.885Z,99270.97
2023-01-29T11:06:38.678Z,99268.69
2023-01-29T11:09:26.672Z,99271.22
2023-01-29T11:12:10.972Z,99268.56
2023-01-29T11:15:14.541Z,99268.63
2023-01-29T11:18:01.629Z,99259.47
2023-01-29T11:20:30.769Z,99240.69
2023-01-29T11:23:00.499Z,99243.25
2023-01-29T11:25:31.110Z,99231.59
2023-01-29T11:28:02.538Z,99231.53
2023-01-29T11:30:35.828Z,99224.69
2023-01-29T11:33:10.212Z,99212.00
2023-01-29T11:35:37.213Z,99203.69
2023-01-29T11:38:18.581Z,99208.00
2023-01-29T11:40:45.843Z,99186.59
2023-01-29T11:43:39.490Z,99187.63
2023-01-29T11:46:12.545Z,99191.84
2023-01-29T11:48:51.696Z,99183.63
2023-01-29T11:51:25.641Z,99182.84
2023-01-29T11:53:58.192Z,99172.78
2023-01-29T11:56:29.810Z,99175.19
2023-01-29T11:59:00.867Z,99164.09
2023-01-29T12:01:40.501Z,99158.25
2023-01-29T12:04:21.715Z,99152.75
2023-01-29T12:06:52.683Z,99146.81
2023-01-29T12:09:28.593Z,99135.56
2023-01-29T12:11:56.115Z,99134.50
2023-01-29T12:14:34.241Z,99130.34
2023-01-29T12:17:06.504Z,99124.47
2023-01-29T12:19:51.862Z,99125.25
2023-01-29T12:22:24.220Z,99116.91
2023-01-29T12:25:02.001Z,99111.06
2023-01-29T12:27:39.425Z,99101.78
2023-01-29T12:30:11.591Z,99111.19
2023-01-29T12:32:56.570Z,99111.06
2023-01-29T12:35:47.971Z,99103.19
2023-01-29T12:38:18.995Z,99104.78
2023-01-29T12:40:51.831Z,99105.63
2023-01-29T12:43:43.370Z,99106.38
2023-01-29T12:46:34.569Z,99103.06
2023-01-29T12:49:07.458Z,99101.31
2023-01-29T12:51:48.497Z,99096.34
2023-01-29T12:54:20.172Z,99088.72
2023-01-29T12:56:53.418Z,99090.66
2023-01-29T12:59:31.727Z,99086.56
2023-01-29T13:02:18.164Z,99092.53
2023-01-29T13:04:54.718Z,99088.06
2023-01-29T13:07:28.638Z,99076.97
2023-01-29T13:10:05.684Z,99090.53
2023-01-29T13:12:33.952Z,99094.78
2023-01-29T13:15:06.852Z,99092.13
2023-01-29T13:17:39.483Z,99083.63
2023-01-29T13:20:31.044Z,99089.50
2023-01-29T13:23:32.741Z,99088.81
2023-01-29T13:26:02.238Z,99085.34
2023-01-29T13:28:28.875Z,99090.41
2023-01-29T13:31:29.248Z,99082.72
2023-01-29T13:34:14.215Z,99091.19
2023-01-29T13:36:50.560Z,99095.56
2023-01-29T13:39:27.146Z,99095.47
2023-01-29T13:41:55.284Z,99095.50
2023-01-29T13:44:29.428Z,99093.00
2023-01-29T13:47:01.970Z,99090.47
2023-01-29T13:49:40.450Z,99088.78
2023-01-29T13:52:15.137Z,99089.53
2023-01-29T13:54:50.676Z,99093.81
2023-01-29T13:57:38.363Z,99087.81
2023-01-29T14:00:07.128Z,99092.09
2023-01-29T14:02:34.034Z,99083.66
2023-01-29T14:05:31.878Z,99079.38
2023-01-29T14:08:03.716Z,99077.66
2023-01-29T14:10:32.833Z,99082.06
2023-01-29T14:13:23.632Z,99081.06
2023-01-29T14:15:59.280Z,99086.16
2023-01-29T14:18:28.303Z,99091.31
2023-01-29T14:21:03.767Z,99088.63
2023-01-29T14:23:41.317Z,99092.91
2023-01-29T14:26:47.614Z,99095.31
2023-01-29T14:29:33.845Z,99090.13
2023-01-29T14:32:15.471Z,99087.44
2023-01-29T14:34:45.898Z,99091.66
2023-01-29T14:37:15.272Z,99084.94
2023-01-29T14:40:13.460Z,99089.16
2023-01-29T14:42:54.810Z,99080.75
2023-01-29T14:45:28.838Z,99088.31
2023-01-29T14:48:23.206Z,99092.44
2023-01-29T14:50:52.152Z,99097.44
2023-01-29T14:53:40.277Z,99100.91
2023-01-29T14:56:16.048Z,99104.03
2023-01-29T14:58:47.499Z,99092.94
2023-01-29T15:01:32.899Z,99100.38
2023-01-29T15:04:13.122Z,99092.59
2023-01-29T15:06:47.313Z,99095.09
2023-01-29T15:09:16.634Z,99095.84
2023-01-29T15:12:00.554Z,99088.97
2023-01-29T15:14:36.811Z,99087.16
2023-01-29T15:17:10.836Z,99082.09
2023-01-29T15:19:59.828Z,99080.19
2023-01-29T15:22:32.485Z,99078.31
2023-01-29T15:25:21.715Z,99076.72
2023-01-29T15:27:49.330Z,99076.59
2023-01-29T15:30:22.041Z,99075.03
2023-01-29T15:32:49.410Z,99073.34
2023-01-29T15:35:30.416Z,99068.88
2023-01-29T15:38:19.111Z,99066.31
2023-01-29T15:40:56.589Z,99071.38
2023-01-29T15:43:35.575Z,99077.97
2023-01-29T15:46:06.647Z,99085.50
2023-01-29T15:48:43.108Z,99087.13
2023-01-29T15:51:16.544Z,99092.22
2023-01-29T15:53:50.680Z,99091.22
2023-01-29T15:56:20.114Z,99097.97
2023-01-29T15:58:51.882Z,99091.09
2023-01-29T16:01:21.158Z,99086.81
2023-01-29T16:03:50.544Z,99080.88
2023-01-29T16:06:20.457Z,99088.44
2023-01-29T16:08:51.479Z,99089.25
2023-01-29T16:11:19.371Z,99089.19
2023-01-29T16:13:48.764Z,99086.72
2023-01-29T16:16:15.355Z,99084.13
2023-01-29T16:18:57.817Z,99072.19
2023-01-29T16:21:31.249Z,99066.16
2023-01-29T16:24:15.999Z,99068.66
2023-01-29T16:26:47.383Z,99061.78
2023-01-29T16:29:17.242Z,99061.00
2023-01-29T16:31:46.099Z,99065.09
2023-01-29T16:34:36.069Z,99060.78
2023-01-29T16:37:06.723Z,99059.06
2023-01-29T16:39:43.182Z,99049.63
2023-01-29T16:42:09.899Z,99050.50
2023-01-29T16:44:39.445Z,99061.47
2023-01-29T16:47:14.257Z,99052.91
2023-01-29T16:49:44.065Z,99056.28
2023-01-29T16:52:24.073Z,99062.16
2023-01-29T16:54:50.712Z,99078.19
2023-01-29T16:57:26.642Z,99074.63
2023-01-29T16:59:59.190Z,99061.91
2023-01-29T17:02:29.582Z,99057.75
2023-01-29T17:05:01.435Z,99067.00
2023-01-29T17:07:29.118Z,99067.00
2023-01-29T17:09:59.921Z,99057.13
2023-01-29T17:12:28.780Z,99050.53
2023-01-29T17:15:01.494Z,99056.66
2023-01-29T17:17:31.848Z,99052.25
2023-01-29T17:20:15.671Z,99051.19
2023-01-29T17:22:43.255Z,99057.84
2023-01-29T17:25:13.439Z,99059.47
2023-01-29T17:27:45.396Z,99053.34
2023-01-29T17:30:17.241Z,99050.81
2023-01-29T17:32:45.164Z,99055.00
2023-01-29T17:35:15.743Z,99055.75
2023-01-29T17:37:42.861Z,99057.53
2023-01-29T17:40:25.785Z,99061.53
2023-01-29T17:42:52.379Z,99059.03
2023-01-29T17:45:19.253Z,99054.75
2023-01-29T17:47:46.041Z,99052.09
2023-01-29T17:50:21.333Z,99052.84
2023-01-29T17:52:48.198Z,99056.13
2023-01-29T17:55:15.041Z,99051.78
2023-01-29T17:57:41.776Z,99055.94
2023-01-29T18:00:22.686Z,99055.09
2023-01-29T18:02:49.575Z,99061.06
2023-01-29T18:05:17.435Z,99065.25
2023-01-29T18:07:46.702Z,99061.84
2023-01-29T18:10:18.270Z,99069.66
2023-01-29T18:12:44.833Z,99064.53
2023-01-29T18:15:12.120Z,99070.53
2023-01-29T18:17:39.742Z,99060.31
2023-01-29T18:20:18.638Z,99067.00
2023-01-29T18:22:45.606Z,99061.84
2023-01-29T18:25:12.356Z,99067.56
2023-01-29T18:27:38.872Z,99057.31
2023-01-29T18:30:05.916Z,99059.81
2023-01-29T18:32:32.485Z,99054.53
2023-01-29T18:34:59.062Z,99049.41
2023-01-29T18:37:25.555Z,99046.78
2023-01-29T18:39:53.097Z,99031.34
2023-01-29T18:42:19.668Z,99039.81
2023-01-29T18:44:46.168Z,99037.28
2023-01-29T18:47:12.705Z,99030.34
2023-01-29T18:49:39.435Z,99021.94
2023-01-29T18:52:09.295Z,99022.78
2023-01-29T18:54:35.846Z,99010.88
2023-01-29T18:57:13.137Z,99001.53
2023-01-29T18:59:40.821Z,99008.28
2023-01-29T19:02:07.989Z,98998.81
2023-01-29T19:04:34.493Z,99009.78
2023-01-29T19:07:01.015Z,99008.03
2023-01-29T19:09:27.635Z,99008.16
2023-01-29T19:11:54.272Z,99010.63
2023-01-29T19:14:20.864Z,99001.22
2023-01-29T19:16:47.547Z,99001.19
2023-01-29T19:19:14.245Z,98998.59
2023-01-29T19:21:40.857Z,98997.75
2023-01-29T19:24:10.123Z,99007.16
2023-01-29T19:26:36.743Z,99002.88
2023-01-29T19:29:03.982Z,99001.94
2023-01-29T19:31:32.039Z,99002.78
2023-01-29T19:33:58.888Z,99017.06
2023-01-29T19:36:25.524Z,99003.50
2023-01-29T19:38:52.205Z,99019.66
2023-01-29T19:41:19.071Z,99021.19
2023-01-29T19:43:46.392Z,99031.31
2023-01-29T19:46:12.998Z,99022.00
2023-01-29T19:48:39.624Z,99022.78
2023-01-29T19:51:08.971Z,99018.53
2023-01-29T19:53:37.010Z,99007.44
2023-01-29T19:56:08.956Z,99019.19
2023-01-29T19:58:36.156Z,99015.69
2023-01-29T20:01:10.778Z,99020.69
2023-01-29T20:03:38.054Z,99022.38
2023-01-29T20:06:06.171Z,99018.59
2023-01-29T20:08:33.672Z,99015.31
2023-01-29T20:11:00.519Z,99016.19
2023-01-29T20:13:27.121Z,99004.34
2023-01-29T20:15:55.445Z,99000.78
2023-01-29T20:18:22.055Z,98999.06
2023-01-29T20:20:50.457Z,99003.44
2023-01-29T20:23:35.251Z,99007.91
2023-01-29T20:26:04.719Z,99002.69
2023-01-29T20:28:31.342Z,98999.38
2023-01-29T20:30:59.135Z,98999.44
2023-01-29T20:33:26.295Z,98998.31
2023-01-29T20:36:01.807Z,98994.13
2023-01-29T20:38:31.473Z,98994.16
2023-01-29T20:41:06.334Z,98989.94
2023-01-29T20:43:33.340Z,98981.81
2023-01-29T20:46:00.889Z,98975.75
2023-01-29T20:48:27.605Z,98984.03
2023-01-29T20:50:54.794Z,98985.03
2023-01-29T20:53:23.901Z,98967.91
2023-01-29T20:55:50.805Z,98977.97
2023-01-29T20:58:17.525Z,98973.38
2023-01-29T21:00:44.902Z,98970.09
2023-01-29T21:03:11.588Z,98971.63
2023-01-29T21:05:38.103Z,98969.78
2023-01-29T21:08:04.882Z,98975.97
2023-01-29T21:10:31.488Z,98983.28
2023-01-29T21:12:58.312Z,98980.91
2023-01-29T21:15:27.294Z,98979.28
2023-01-29T21:17:54.611Z,98981.84
2023-01-29T21:20:21.405Z,98975.06
2023-01-29T21:22:49.114Z,98974.34
2023-01-29T21:25:15.912Z,98971.78
2023-01-29T21:27:42.403Z,98981.94
2023-01-29T21:30:09.491Z,98970.19
2023-01-29T21:32:36.072Z,98962.44
2023-01-29T21:35:02.817Z,98965.00
2023-01-29T21:37:29.514Z,98961.69
2023-01-29T21:39:56.134Z,98959.16
2023-01-29T21:42:41.045Z,98965.88
2023-01-29T21:45:08.411Z,98954.00
2023-01-29T21:47:34.888Z,98953.00
2023-01-29T21:50:01.394Z,98949.56
2023-01-29T21:52:27.996Z,98945.28
2023-01-29T21:54:54.577Z,98938.47
2023-01-29T21:57:21.076Z,98940.22
2023-01-29T21:59:52.413Z,98938.44
2023-01-29T22:02:20.770Z,98935.94
2023-01-29T22:04:47.383Z,98936.84
2023-01-29T22:07:14.235Z,98932.59
2023-01-29T22:09:40.759Z,98930.91
2023-01-29T22:12:08.084Z,98929.91
2023-01-29T22:14:34.757Z,98925.81
2023-01-29T22:17:01.469Z,98925.84
2023-01-29T22:19:29.410Z,98915.72
2023-01-29T22:21:56.376Z,98921.63
2023-01-29T22:24:22.960Z,98913.94
2023-01-29T22:26:49.702Z,98916.38
2023-01-29T22:29:19.996Z,98911.28
2023-01-29T22:31:47.149Z,98908.66
2023-01-29T22:34:14.808Z,98908.53
2023-01-29T22:36:41.545Z,98909.25
2023-01-29T22:39:08.738Z,98904.81
2023-01-29T22:41:35.446Z,98890.25
2023-01-29T22:44:02.080Z,98890.22
2023-01-29T22:46:29.024Z,98883.28
2023-01-29T22:48:55.698Z,98881.63
2023-01-29T22:51:22.815Z,98886.72
2023-01-29T22:53:54.373Z,98889.22
2023-01-29T22:56:25.400Z,98881.53
2023-01-29T22:58:56.925Z,98872.09
2023-01-29T23:01:26.011Z,98877.16
2023-01-29T23:03:53.000Z,98881.31
2023-01-29T23:06:21.707Z,98883.00
2023-01-29T23:08:49.242Z,98878.66
2023-01-29T23:11:19.918Z,98882.84
2023-01-29T23:13:48.879Z,98877.00
2023-01-29T23:16:16.756Z,98888.00
2023-01-29T23:18:44.845Z,98882.13
2023-01-29T23:21:12.606Z,98883.75
2023-01-29T23:23:39.440Z,98884.53
2023-01-29T23:26:25.817Z,98893.88
2023-01-29T23:28:52.417Z,98887.94
2023-01-29T23:31:19.078Z,98890.53
2023-01-29T23:33:48.616Z,98884.66
2023-01-29T23:36:15.132Z,98884.31
2023-01-29T23:38:41.772Z,98884.78
2023-01-29T23:41:08.435Z,98880.63
2023-01-29T23:43:34.938Z,98874.88
2023-01-29T23:46:01.868Z,98874.88
2023-01-29T23:48:28.472Z,98867.16
2023-01-29T23:50:55.037Z,98873.09
2023-01-29T23:53:21.657Z,98864.47
2023-01-29T23:55:58.985Z,98852.03
2023-01-29T23:58:26.303Z,98858.88
